sensor_id;sensor_type;location;lat;lon;timestamp;temperature;humidity
3067;DHT22;1544;48.834;9.194;2022-11-02T00:01:23;11.00;54.90
3067;DHT22;1544;48.834;9.194;2022-11-02T00:04:00;11.00;55.40
3067;DHT22;1544;48.834;9.194;2022-11-02T00:06:35;10.90;55.60
3067;DHT22;1544;48.834;9.194;2022-11-02T00:09:10;10.90;56.00
3067;DHT22;1544;48.834;9.194;2022-11-02T00:11:45;10.80;56.30
3067;DHT22;1544;48.834;9.194;2022-11-02T00:14:20;10.80;56.50
3067;DHT22;1544;48.834;9.194;2022-11-02T00:16:54;10.80;56.80
3067;DHT22;1544;48.834;9.194;2022-11-02T00:19:29;10.70;56.80
3067;DHT22;1544;48.834;9.194;2022-11-02T00:22:04;10.70;56.90
3067;DHT22;1544;48.834;9.194;2022-11-02T00:24:39;10.70;57.20
3067;DHT22;1544;48.834;9.194;2022-11-02T00:27:14;10.60;57.40
3067;DHT22;1544;48.834;9.194;2022-11-02T00:29:49;10.60;57.70
3067;DHT22;1544;48.834;9.194;2022-11-02T00:32:25;10.60;58.00
3067;DHT22;1544;48.834;9.194;2022-11-02T00:35:00;10.50;58.50
3067;DHT22;1544;48.834;9.194;2022-11-02T00:37:35;10.50;58.50
3067;DHT22;1544;48.834;9.194;2022-11-02T00:40:10;10.50;58.40
3067;DHT22;1544;48.834;9.194;2022-11-02T00:42:45;10.50;58.50
3067;DHT22;1544;48.834;9.194;2022-11-02T00:45:20;10.50;58.80
3067;DHT22;1544;48.834;9.194;2022-11-02T00:47:56;10.50;59.20
3067;DHT22;1544;48.834;9.194;2022-11-02T00:50:31;10.50;59.30
3067;DHT22;1544;48.834;9.194;2022-11-02T00:53:06;10.40;59.20
3067;DHT22;1544;48.834;9.194;2022-11-02T00:55:41;10.40;59.10
3067;DHT22;1544;48.834;9.194;2022-11-02T00:58:16;10.40;59.30
3067;DHT22;1544;48.834;9.194;2022-11-02T01:00:51;10.40;59.70
3067;DHT22;1544;48.834;9.194;2022-11-02T01:03:26;10.40;60.10
3067;DHT22;1544;48.834;9.194;2022-11-02T01:06:10;10.40;60.60
3067;DHT22;1544;48.834;9.194;2022-11-02T01:08:46;10.40;61.00
3067;DHT22;1544;48.834;9.194;2022-11-02T01:11:23;10.40;61.70
3067;DHT22;1544;48.834;9.194;2022-11-02T01:13:58;10.40;62.00
3067;DHT22;1544;48.834;9.194;2022-11-02T01:16:33;10.40;62.10
3067;DHT22;1544;48.834;9.194;2022-11-02T01:19:08;10.40;62.10
3067;DHT22;1544;48.834;9.194;2022-11-02T01:21:44;10.40;62.10
3067;DHT22;1544;48.834;9.194;2022-11-02T01:24:19;10.40;62.00
3067;DHT22;1544;48.834;9.194;2022-11-02T01:26:53;10.40;62.00
3067;DHT22;1544;48.834;9.194;2022-11-02T01:29:28;10.40;61.80
3067;DHT22;1544;48.834;9.194;2022-11-02T01:32:03;10.40;62.30
3067;DHT22;1544;48.834;9.194;2022-11-02T01:34:38;10.40;62.50
3067;DHT22;1544;48.834;9.194;2022-11-02T01:37:13;10.50;63.10
3067;DHT22;1544;48.834;9.194;2022-11-02T01:39:48;10.50;64.00
3067;DHT22;1544;48.834;9.194;2022-11-02T01:42:25;10.70;64.80
3067;DHT22;1544;48.834;9.194;2022-11-02T01:45:03;10.70;65.20
3067;DHT22;1544;48.834;9.194;2022-11-02T01:47:41;10.70;65.20
3067;DHT22;1544;48.834;9.194;2022-11-02T01:50:22;10.80;65.70
3067;DHT22;1544;48.834;9.194;2022-11-02T01:52:59;10.90;65.90
3067;DHT22;1544;48.834;9.194;2022-11-02T01:55:34;10.90;65.50
3067;DHT22;1544;48.834;9.194;2022-11-02T01:58:10;11.00;65.30
3067;DHT22;1544;48.834;9.194;2022-11-02T02:00:46;11.10;65.00
3067;DHT22;1544;48.834;9.194;2022-11-02T02:03:21;11.10;64.70
3067;DHT22;1544;48.834;9.194;2022-11-02T02:06:00;11.20;64.40
3067;DHT22;1544;48.834;9.194;2022-11-02T02:08:42;11.20;64.20
3067;DHT22;1544;48.834;9.194;2022-11-02T02:11:25;11.30;64.10
3067;DHT22;1544;48.834;9.194;2022-11-02T02:14:07;11.30;63.70
3067;DHT22;1544;48.834;9.194;2022-11-02T02:20:16;11.50;63.00
3067;DHT22;1544;48.834;9.194;2022-11-02T02:26:30;11.50;62.00
3067;DHT22;1544;48.834;9.194;2022-11-02T02:29:20;11.50;61.50
3067;DHT22;1544;48.834;9.194;2022-11-02T02:32:23;11.50;61.10
3067;DHT22;1544;48.834;9.194;2022-11-02T02:35:16;11.50;61.10
3067;DHT22;1544;48.834;9.194;2022-11-02T02:37:59;11.50;60.70
3067;DHT22;1544;48.834;9.194;2022-11-02T02:44:13;11.50;60.20
3067;DHT22;1544;48.834;9.194;2022-11-02T02:46:45;11.50;60.20
3067;DHT22;1544;48.834;9.194;2022-11-02T02:49:37;11.50;60.20
3067;DHT22;1544;48.834;9.194;2022-11-02T02:52:17;11.40;60.30
3067;DHT22;1544;48.834;9.194;2022-11-02T02:54:56;11.50;60.30
3067;DHT22;1544;48.834;9.194;2022-11-02T02:57:33;11.40;60.40
3067;DHT22;1544;48.834;9.194;2022-11-02T03:00:13;11.40;60.70
3067;DHT22;1544;48.834;9.194;2022-11-02T03:02:53;11.40;60.80
3067;DHT22;1544;48.834;9.194;2022-11-02T03:05:36;11.40;60.80
3067;DHT22;1544;48.834;9.194;2022-11-02T03:08:15;11.40;60.80
3067;DHT22;1544;48.834;9.194;2022-11-02T03:11:12;11.40;60.60
3067;DHT22;1544;48.834;9.194;2022-11-02T03:28:09;11.50;61.00
3067;DHT22;1544;48.834;9.194;2022-11-02T03:31:15;11.50;61.00
3067;DHT22;1544;48.834;9.194;2022-11-02T03:36:53;11.50;60.50
3067;DHT22;1544;48.834;9.194;2022-11-02T03:39:36;11.50;60.20
3067;DHT22;1544;48.834;9.194;2022-11-02T03:42:22;11.50;59.90
3067;DHT22;1544;48.834;9.194;2022-11-02T03:45:20;11.50;59.90
3067;DHT22;1544;48.834;9.194;2022-11-02T03:48:03;11.50;60.00
3067;DHT22;1544;48.834;9.194;2022-11-02T03:50:45;11.50;59.80
3067;DHT22;1544;48.834;9.194;2022-11-02T03:53:36;11.40;59.60
3067;DHT22;1544;48.834;9.194;2022-11-02T03:56:31;11.40;60.00
3067;DHT22;1544;48.834;9.194;2022-11-02T03:59:10;11.40;60.00
3067;DHT22;1544;48.834;9.194;2022-11-02T04:01:49;11.40;60.10
3067;DHT22;1544;48.834;9.194;2022-11-02T04:04:27;11.40;60.40
3067;DHT22;1544;48.834;9.194;2022-11-02T04:07:02;11.30;60.60
3067;DHT22;1544;48.834;9.194;2022-11-02T04:09:37;11.40;61.30
3067;DHT22;1544;48.834;9.194;2022-11-02T04:12:12;11.40;61.40
3067;DHT22;1544;48.834;9.194;2022-11-02T04:15:07;11.40;61.00
3067;DHT22;1544;48.834;9.194;2022-11-02T04:17:43;11.50;60.20
3067;DHT22;1544;48.834;9.194;2022-11-02T04:20:37;11.50;59.80
3067;DHT22;1544;48.834;9.194;2022-11-02T04:23:12;11.60;59.20
3067;DHT22;1544;48.834;9.194;2022-11-02T04:26:06;11.60;58.40
3067;DHT22;1544;48.834;9.194;2022-11-02T04:28:45;11.70;58.00
3067;DHT22;1544;48.834;9.194;2022-11-02T04:31:20;11.70;57.50
3067;DHT22;1544;48.834;9.194;2022-11-02T04:33:55;11.70;57.00
3067;DHT22;1544;48.834;9.194;2022-11-02T04:36:34;11.80;56.40
3067;DHT22;1544;48.834;9.194;2022-11-02T04:39:09;11.80;55.80
3067;DHT22;1544;48.834;9.194;2022-11-02T04:41:45;11.90;55.30
3067;DHT22;1544;48.834;9.194;2022-11-02T04:44:26;11.90;55.00
3067;DHT22;1544;48.834;9.194;2022-11-02T04:47:09;11.90;54.50
3067;DHT22;1544;48.834;9.194;2022-11-02T04:49:44;11.90;54.30
3067;DHT22;1544;48.834;9.194;2022-11-02T04:52:22;11.90;53.80
3067;DHT22;1544;48.834;9.194;2022-11-02T04:54:58;11.90;53.50
3067;DHT22;1544;48.834;9.194;2022-11-02T04:57:34;11.90;53.10
3067;DHT22;1544;48.834;9.194;2022-11-02T05:00:10;11.90;52.50
3067;DHT22;1544;48.834;9.194;2022-11-02T05:02:48;11.90;52.30
3067;DHT22;1544;48.834;9.194;2022-11-02T05:05:27;11.90;52.20
3067;DHT22;1544;48.834;9.194;2022-11-02T05:08:05;11.80;52.10
3067;DHT22;1544;48.834;9.194;2022-11-02T05:10:41;11.80;52.20
3067;DHT22;1544;48.834;9.194;2022-11-02T05:13:17;11.70;52.60
3067;DHT22;1544;48.834;9.194;2022-11-02T05:15:58;11.60;52.70
3067;DHT22;1544;48.834;9.194;2022-11-02T05:18:36;11.50;53.10
3067;DHT22;1544;48.834;9.194;2022-11-02T05:21:12;11.40;53.50
3067;DHT22;1544;48.834;9.194;2022-11-02T05:23:47;11.30;54.00
3067;DHT22;1544;48.834;9.194;2022-11-02T05:26:22;11.30;54.50
3067;DHT22;1544;48.834;9.194;2022-11-02T05:28:57;11.20;55.10
3067;DHT22;1544;48.834;9.194;2022-11-02T05:31:33;11.10;55.30
3067;DHT22;1544;48.834;9.194;2022-11-02T05:34:08;11.10;55.90
3067;DHT22;1544;48.834;9.194;2022-11-02T05:36:46;11.00;56.10
3067;DHT22;1544;48.834;9.194;2022-11-02T05:39:22;11.00;56.50
3067;DHT22;1544;48.834;9.194;2022-11-02T05:41:58;10.90;56.60
3067;DHT22;1544;48.834;9.194;2022-11-02T05:44:32;10.90;56.90
3067;DHT22;1544;48.834;9.194;2022-11-02T05:47:07;10.90;57.10
3067;DHT22;1544;48.834;9.194;2022-11-02T05:49:42;10.80;57.30
3067;DHT22;1544;48.834;9.194;2022-11-02T05:52:17;10.80;57.70
3067;DHT22;1544;48.834;9.194;2022-11-02T05:54:52;10.80;58.00
3067;DHT22;1544;48.834;9.194;2022-11-02T05:57:27;10.70;58.10
3067;DHT22;1544;48.834;9.194;2022-11-02T06:00:04;10.70;58.40
3067;DHT22;1544;48.834;9.194;2022-11-02T06:02:46;10.70;58.80
3067;DHT22;1544;48.834;9.194;2022-11-02T06:05:22;10.70;59.40
3067;DHT22;1544;48.834;9.194;2022-11-02T06:07:59;10.80;60.40
3067;DHT22;1544;48.834;9.194;2022-11-02T06:10:35;10.90;60.70
3067;DHT22;1544;48.834;9.194;2022-11-02T06:13:10;10.80;61.00
3067;DHT22;1544;48.834;9.194;2022-11-02T06:15:45;10.90;60.80
3067;DHT22;1544;48.834;9.194;2022-11-02T06:18:20;11.00;60.40
3067;DHT22;1544;48.834;9.194;2022-11-02T06:20:56;11.10;60.10
3067;DHT22;1544;48.834;9.194;2022-11-02T06:23:32;11.10;59.40
3067;DHT22;1544;48.834;9.194;2022-11-02T06:26:08;11.20;59.00
3067;DHT22;1544;48.834;9.194;2022-11-02T06:28:45;11.30;58.40
3067;DHT22;1544;48.834;9.194;2022-11-02T06:31:20;11.30;57.70
3067;DHT22;1544;48.834;9.194;2022-11-02T06:33:55;11.40;57.50
3067;DHT22;1544;48.834;9.194;2022-11-02T06:36:30;11.40;57.00
3067;DHT22;1544;48.834;9.194;2022-11-02T06:39:05;11.50;56.70
3067;DHT22;1544;48.834;9.194;2022-11-02T06:41:40;11.50;56.50
3067;DHT22;1544;48.834;9.194;2022-11-02T06:44:15;11.50;56.00
3067;DHT22;1544;48.834;9.194;2022-11-02T06:46:50;11.60;55.70
3067;DHT22;1544;48.834;9.194;2022-11-02T06:49:25;11.70;55.60
3067;DHT22;1544;48.834;9.194;2022-11-02T06:52:00;11.80;55.10
3067;DHT22;1544;48.834;9.194;2022-11-02T06:54:35;11.80;54.50
3067;DHT22;1544;48.834;9.194;2022-11-02T06:57:10;12.00;53.90
3067;DHT22;1544;48.834;9.194;2022-11-02T06:59:45;12.00;53.40
3067;DHT22;1544;48.834;9.194;2022-11-02T07:02:27;12.10;52.70
3067;DHT22;1544;48.834;9.194;2022-11-02T07:05:02;12.20;52.00
3067;DHT22;1544;48.834;9.194;2022-11-02T07:07:37;12.30;51.20
3067;DHT22;1544;48.834;9.194;2022-11-02T07:10:12;12.40;50.90
3067;DHT22;1544;48.834;9.194;2022-11-02T07:12:51;12.50;50.70
3067;DHT22;1544;48.834;9.194;2022-11-02T07:15:27;12.60;50.40
3067;DHT22;1544;48.834;9.194;2022-11-02T07:18:02;12.70;50.20
3067;DHT22;1544;48.834;9.194;2022-11-02T07:20:39;12.70;49.90
3067;DHT22;1544;48.834;9.194;2022-11-02T07:23:14;12.80;50.00
3067;DHT22;1544;48.834;9.194;2022-11-02T07:25:50;12.90;49.90
3067;DHT22;1544;48.834;9.194;2022-11-02T07:28:25;12.90;49.40
3067;DHT22;1544;48.834;9.194;2022-11-02T07:31:00;13.00;48.90
3067;DHT22;1544;48.834;9.194;2022-11-02T07:33:35;13.10;48.20
3067;DHT22;1544;48.834;9.194;2022-11-02T07:36:10;13.20;48.60
3067;DHT22;1544;48.834;9.194;2022-11-02T07:38:45;13.20;47.50
3067;DHT22;1544;48.834;9.194;2022-11-02T07:41:20;13.30;47.60
3067;DHT22;1544;48.834;9.194;2022-11-02T07:43:55;13.40;47.50
3067;DHT22;1544;48.834;9.194;2022-11-02T07:46:39;13.40;47.10
3067;DHT22;1544;48.834;9.194;2022-11-02T07:49:14;13.40;46.90
3067;DHT22;1544;48.834;9.194;2022-11-02T07:51:55;13.50;47.00
3067;DHT22;1544;48.834;9.194;2022-11-02T07:54:30;13.60;46.50
3067;DHT22;1544;48.834;9.194;2022-11-02T07:57:05;13.70;46.00
3067;DHT22;1544;48.834;9.194;2022-11-02T07:59:40;13.80;45.30
3067;DHT22;1544;48.834;9.194;2022-11-02T08:02:15;13.90;45.30
3067;DHT22;1544;48.834;9.194;2022-11-02T08:04:50;14.00;45.40
3067;DHT22;1544;48.834;9.194;2022-11-02T08:07:24;14.00;44.60
3067;DHT22;1544;48.834;9.194;2022-11-02T08:10:00;14.10;44.50
3067;DHT22;1544;48.834;9.194;2022-11-02T08:12:34;14.20;44.20
3067;DHT22;1544;48.834;9.194;2022-11-02T08:15:09;14.30;43.90
3067;DHT22;1544;48.834;9.194;2022-11-02T08:17:44;14.30;43.70
3067;DHT22;1544;48.834;9.194;2022-11-02T08:20:20;14.40;42.90
3067;DHT22;1544;48.834;9.194;2022-11-02T08:22:56;14.40;42.80
3067;DHT22;1544;48.834;9.194;2022-11-02T08:25:32;14.50;42.70
3067;DHT22;1544;48.834;9.194;2022-11-02T08:28:11;14.60;42.60
3067;DHT22;1544;48.834;9.194;2022-11-02T08:30:48;14.70;42.30
3067;DHT22;1544;48.834;9.194;2022-11-02T08:33:23;14.70;42.00
3067;DHT22;1544;48.834;9.194;2022-11-02T08:36:02;14.70;42.10
3067;DHT22;1544;48.834;9.194;2022-11-02T08:38:38;14.80;41.90
3067;DHT22;1544;48.834;9.194;2022-11-02T08:41:13;14.80;41.70
3067;DHT22;1544;48.834;9.194;2022-11-02T08:43:48;14.90;41.40
3067;DHT22;1544;48.834;9.194;2022-11-02T08:46:23;14.90;41.40
3067;DHT22;1544;48.834;9.194;2022-11-02T08:48:58;15.00;40.80
3067;DHT22;1544;48.834;9.194;2022-11-02T08:51:33;15.00;40.90
3067;DHT22;1544;48.834;9.194;2022-11-02T08:54:08;15.10;41.10
3067;DHT22;1544;48.834;9.194;2022-11-02T08:56:44;15.10;40.90
3067;DHT22;1544;48.834;9.194;2022-11-02T08:59:19;15.20;40.90
3067;DHT22;1544;48.834;9.194;2022-11-02T09:01:54;15.30;41.30
3067;DHT22;1544;48.834;9.194;2022-11-02T09:04:29;15.30;40.70
3067;DHT22;1544;48.834;9.194;2022-11-02T09:07:04;15.40;40.40
3067;DHT22;1544;48.834;9.194;2022-11-02T09:09:39;15.40;40.40
3067;DHT22;1544;48.834;9.194;2022-11-02T09:12:14;15.50;40.10
3067;DHT22;1544;48.834;9.194;2022-11-02T09:14:49;15.50;39.80
3067;DHT22;1544;48.834;9.194;2022-11-02T09:17:24;15.60;39.90
3067;DHT22;1544;48.834;9.194;2022-11-02T09:19:59;15.60;40.00
3067;DHT22;1544;48.834;9.194;2022-11-02T09:22:35;15.60;39.70
3067;DHT22;1544;48.834;9.194;2022-11-02T09:25:10;15.70;39.80
3067;DHT22;1544;48.834;9.194;2022-11-02T09:27:46;15.70;39.60
3067;DHT22;1544;48.834;9.194;2022-11-02T09:30:28;15.80;39.20
3067;DHT22;1544;48.834;9.194;2022-11-02T09:33:04;15.90;39.00
3067;DHT22;1544;48.834;9.194;2022-11-02T09:35:42;15.90;38.70
3067;DHT22;1544;48.834;9.194;2022-11-02T09:38:19;16.00;38.90
3067;DHT22;1544;48.834;9.194;2022-11-02T09:41:11;16.00;39.00
3067;DHT22;1544;48.834;9.194;2022-11-02T09:43:49;16.10;38.80
3067;DHT22;1544;48.834;9.194;2022-11-02T09:46:35;16.10;38.40
3067;DHT22;1544;48.834;9.194;2022-11-02T09:49:22;16.20;38.30
3067;DHT22;1544;48.834;9.194;2022-11-02T09:51:59;16.30;38.20
3067;DHT22;1544;48.834;9.194;2022-11-02T09:54:41;16.30;37.80
3067;DHT22;1544;48.834;9.194;2022-11-02T09:57:37;16.40;37.90
3067;DHT22;1544;48.834;9.194;2022-11-02T10:00:13;16.40;38.10
3067;DHT22;1544;48.834;9.194;2022-11-02T10:03:16;16.50;38.30
3067;DHT22;1544;48.834;9.194;2022-11-02T10:06:25;16.60;38.40
3067;DHT22;1544;48.834;9.194;2022-11-02T10:09:11;16.60;37.70
3067;DHT22;1544;48.834;9.194;2022-11-02T10:11:58;16.70;37.20
3067;DHT22;1544;48.834;9.194;2022-11-02T10:17:39;16.60;36.40
3067;DHT22;1544;48.834;9.194;2022-11-02T10:20:31;16.60;36.50
3067;DHT22;1544;48.834;9.194;2022-11-02T10:23:20;16.60;36.60
3067;DHT22;1544;48.834;9.194;2022-11-02T10:26:03;16.60;35.60
3067;DHT22;1544;48.834;9.194;2022-11-02T10:28:40;16.60;35.30
3067;DHT22;1544;48.834;9.194;2022-11-02T10:31:24;16.60;35.20
3067;DHT22;1544;48.834;9.194;2022-11-02T10:34:22;16.50;34.90
3067;DHT22;1544;48.834;9.194;2022-11-02T10:43:50;16.40;35.30
3067;DHT22;1544;48.834;9.194;2022-11-02T10:52:23;16.40;35.30
3067;DHT22;1544;48.834;9.194;2022-11-02T10:54:58;16.30;35.50
3067;DHT22;1544;48.834;9.194;2022-11-02T10:57:34;16.30;35.60
3067;DHT22;1544;48.834;9.194;2022-11-02T11:00:35;16.30;35.80
3067;DHT22;1544;48.834;9.194;2022-11-02T11:03:12;16.40;35.90
3067;DHT22;1544;48.834;9.194;2022-11-02T11:08:36;16.60;36.10
3067;DHT22;1544;48.834;9.194;2022-11-02T11:11:23;16.60;35.40
3067;DHT22;1544;48.834;9.194;2022-11-02T11:14:03;16.70;35.10
3067;DHT22;1544;48.834;9.194;2022-11-02T11:17:19;16.60;35.00
3067;DHT22;1544;48.834;9.194;2022-11-02T11:20:36;16.70;34.80
3067;DHT22;1544;48.834;9.194;2022-11-02T11:23:23;16.60;34.80
3067;DHT22;1544;48.834;9.194;2022-11-02T11:26:01;16.60;34.70
3067;DHT22;1544;48.834;9.194;2022-11-02T11:28:44;16.70;34.80
3067;DHT22;1544;48.834;9.194;2022-11-02T11:31:26;16.70;35.30
3067;DHT22;1544;48.834;9.194;2022-11-02T11:34:01;16.70;35.20
3067;DHT22;1544;48.834;9.194;2022-11-02T11:36:36;16.90;35.10
3067;DHT22;1544;48.834;9.194;2022-11-02T11:39:27;16.90;35.00
3067;DHT22;1544;48.834;9.194;2022-11-02T11:42:03;17.00;34.70
3067;DHT22;1544;48.834;9.194;2022-11-02T11:44:44;17.10;34.60
3067;DHT22;1544;48.834;9.194;2022-11-02T11:47:38;17.30;34.80
3067;DHT22;1544;48.834;9.194;2022-11-02T11:50:15;17.50;34.70
3067;DHT22;1544;48.834;9.194;2022-11-02T11:53:21;17.70;34.10
3067;DHT22;1544;48.834;9.194;2022-11-02T11:55:58;18.00;33.70
3067;DHT22;1544;48.834;9.194;2022-11-02T11:58:34;18.20;33.10
3067;DHT22;1544;48.834;9.194;2022-11-02T12:03:55;18.50;32.70
3067;DHT22;1544;48.834;9.194;2022-11-02T12:10:21;18.70;32.60
3067;DHT22;1544;48.834;9.194;2022-11-02T12:13:23;18.60;32.20
3067;DHT22;1544;48.834;9.194;2022-11-02T12:16:16;18.40;32.40
3067;DHT22;1544;48.834;9.194;2022-11-02T12:19:36;18.30;32.10
3067;DHT22;1544;48.834;9.194;2022-11-02T12:23:05;18.10;32.30
3067;DHT22;1544;48.834;9.194;2022-11-02T12:29:47;18.20;31.70
3067;DHT22;1544;48.834;9.194;2022-11-02T12:56:46;19.40;29.00
3067;DHT22;1544;48.834;9.194;2022-11-02T13:02:10;19.80;29.60
3067;DHT22;1544;48.834;9.194;2022-11-02T13:10:46;20.10;28.90
3067;DHT22;1544;48.834;9.194;2022-11-02T13:13:38;20.20;29.10
3067;DHT22;1544;48.834;9.194;2022-11-02T13:16:21;20.50;29.50
3067;DHT22;1544;48.834;9.194;2022-11-02T13:19:01;20.80;29.80
3067;DHT22;1544;48.834;9.194;2022-11-02T13:21:41;21.00;29.20
3067;DHT22;1544;48.834;9.194;2022-11-02T13:24:22;21.10;28.90
3067;DHT22;1544;48.834;9.194;2022-11-02T13:27:06;21.20;29.20
3067;DHT22;1544;48.834;9.194;2022-11-02T13:30:14;21.30;29.00
3067;DHT22;1544;48.834;9.194;2022-11-02T13:33:11;21.20;29.40
3067;DHT22;1544;48.834;9.194;2022-11-02T13:35:49;21.30;29.70
3067;DHT22;1544;48.834;9.194;2022-11-02T13:44:44;21.50;29.10
3067;DHT22;1544;48.834;9.194;2022-11-02T13:50:30;22.00;30.50
3067;DHT22;1544;48.834;9.194;2022-11-02T13:53:11;22.10;29.40
3067;DHT22;1544;48.834;9.194;2022-11-02T13:55:59;22.20;28.70
3067;DHT22;1544;48.834;9.194;2022-11-02T13:58:56;22.00;28.50
3067;DHT22;1544;48.834;9.194;2022-11-02T14:01:37;22.00;29.00
3067;DHT22;1544;48.834;9.194;2022-11-02T14:04:14;22.00;29.10
3067;DHT22;1544;48.834;9.194;2022-11-02T14:06:59;22.10;29.10
3067;DHT22;1544;48.834;9.194;2022-11-02T14:09:42;22.20;29.50
3067;DHT22;1544;48.834;9.194;2022-11-02T14:36:52;22.20;29.20
3067;DHT22;1544;48.834;9.194;2022-11-02T14:42:42;22.30;28.70
3067;DHT22;1544;48.834;9.194;2022-11-02T14:45:42;22.30;28.80
3067;DHT22;1544;48.834;9.194;2022-11-02T14:48:28;22.30;28.60
3067;DHT22;1544;48.834;9.194;2022-11-02T14:51:10;22.20;28.70
3067;DHT22;1544;48.834;9.194;2022-11-02T14:54:17;22.10;28.40
3067;DHT22;1544;48.834;9.194;2022-11-02T14:57:05;22.00;28.70
3067;DHT22;1544;48.834;9.194;2022-11-02T14:59:51;21.90;28.30
3067;DHT22;1544;48.834;9.194;2022-11-02T15:02:38;21.80;28.90
3067;DHT22;1544;48.834;9.194;2022-11-02T15:05:22;21.70;28.50
3067;DHT22;1544;48.834;9.194;2022-11-02T15:08:02;21.60;28.30
3067;DHT22;1544;48.834;9.194;2022-11-02T15:10:44;21.50;28.40
3067;DHT22;1544;48.834;9.194;2022-11-02T15:21:21;21.10;28.90
3067;DHT22;1544;48.834;9.194;2022-11-02T15:26:54;20.70;29.20
3067;DHT22;1544;48.834;9.194;2022-11-02T15:29:40;20.50;29.50
3067;DHT22;1544;48.834;9.194;2022-11-02T15:32:20;20.30;29.30
3067;DHT22;1544;48.834;9.194;2022-11-02T15:34:59;20.10;29.70
3067;DHT22;1544;48.834;9.194;2022-11-02T15:37:37;19.90;29.90
3067;DHT22;1544;48.834;9.194;2022-11-02T15:40:53;19.80;30.00
3067;DHT22;1544;48.834;9.194;2022-11-02T15:53:44;18.80;31.10
3067;DHT22;1544;48.834;9.194;2022-11-02T15:56:48;18.60;31.40
3067;DHT22;1544;48.834;9.194;2022-11-02T16:02:53;18.20;31.70
3067;DHT22;1544;48.834;9.194;2022-11-02T16:05:41;17.90;31.90
3067;DHT22;1544;48.834;9.194;2022-11-02T16:08:33;17.70;32.10
3067;DHT22;1544;48.834;9.194;2022-11-02T16:11:12;17.60;32.30
3067;DHT22;1544;48.834;9.194;2022-11-02T16:13:51;17.40;32.50
3067;DHT22;1544;48.834;9.194;2022-11-02T16:16:47;17.20;32.60
3067;DHT22;1544;48.834;9.194;2022-11-02T16:19:23;17.10;32.60
3067;DHT22;1544;48.834;9.194;2022-11-02T16:21:58;16.90;32.60
3067;DHT22;1544;48.834;9.194;2022-11-02T16:24:39;16.80;32.80
3067;DHT22;1544;48.834;9.194;2022-11-02T16:27:17;16.60;32.70
3067;DHT22;1544;48.834;9.194;2022-11-02T16:29:52;16.50;32.90
3067;DHT22;1544;48.834;9.194;2022-11-02T16:32:27;16.40;33.40
3067;DHT22;1544;48.834;9.194;2022-11-02T16:35:02;16.30;33.10
3067;DHT22;1544;48.834;9.194;2022-11-02T16:37:37;16.20;33.20
3067;DHT22;1544;48.834;9.194;2022-11-02T16:40:18;16.10;33.20
3067;DHT22;1544;48.834;9.194;2022-11-02T16:42:53;15.90;33.20
3067;DHT22;1544;48.834;9.194;2022-11-02T16:45:35;15.80;33.40
3067;DHT22;1544;48.834;9.194;2022-11-02T16:48:29;15.70;33.50
3067;DHT22;1544;48.834;9.194;2022-11-02T16:53:51;15.50;33.70
3067;DHT22;1544;48.834;9.194;2022-11-02T16:56:28;15.30;33.70
3067;DHT22;1544;48.834;9.194;2022-11-02T16:59:05;15.30;33.90
3067;DHT22;1544;48.834;9.194;2022-11-02T17:01:40;15.20;33.90
3067;DHT22;1544;48.834;9.194;2022-11-02T17:04:23;15.10;34.00
3067;DHT22;1544;48.834;9.194;2022-11-02T17:07:42;15.00;34.10
3067;DHT22;1544;48.834;9.194;2022-11-02T17:10:20;14.90;34.20
3067;DHT22;1544;48.834;9.194;2022-11-02T17:12:59;14.80;34.30
3067;DHT22;1544;48.834;9.194;2022-11-02T17:15:35;14.80;34.40
3067;DHT22;1544;48.834;9.194;2022-11-02T17:20:46;14.60;34.60
3067;DHT22;1544;48.834;9.194;2022-11-02T17:23:31;14.50;34.80
3067;DHT22;1544;48.834;9.194;2022-11-02T17:26:33;14.40;34.90
3067;DHT22;1544;48.834;9.194;2022-11-02T17:32:03;14.30;35.20
3067;DHT22;1544;48.834;9.194;2022-11-02T17:34:51;14.20;35.30
3067;DHT22;1544;48.834;9.194;2022-11-02T17:37:29;14.10;35.40
3067;DHT22;1544;48.834;9.194;2022-11-02T17:40:08;14.10;35.50
3067;DHT22;1544;48.834;9.194;2022-11-02T17:42:45;14.00;35.70
3067;DHT22;1544;48.834;9.194;2022-11-02T17:45:38;13.90;35.80
3067;DHT22;1544;48.834;9.194;2022-11-02T17:48:13;13.90;35.90
3067;DHT22;1544;48.834;9.194;2022-11-02T17:50:51;13.80;36.00
3067;DHT22;1544;48.834;9.194;2022-11-02T17:53:27;13.80;36.20
3067;DHT22;1544;48.834;9.194;2022-11-02T17:56:02;13.70;36.30
3067;DHT22;1544;48.834;9.194;2022-11-02T17:58:37;13.60;36.40
3067;DHT22;1544;48.834;9.194;2022-11-02T18:01:12;13.50;36.50
3067;DHT22;1544;48.834;9.194;2022-11-02T18:03:48;13.50;36.60
3067;DHT22;1544;48.834;9.194;2022-11-02T18:06:23;13.40;36.80
3067;DHT22;1544;48.834;9.194;2022-11-02T18:08:58;13.30;36.90
3067;DHT22;1544;48.834;9.194;2022-11-02T18:11:45;13.20;37.00
3067;DHT22;1544;48.834;9.194;2022-11-02T18:14:20;13.10;37.10
3067;DHT22;1544;48.834;9.194;2022-11-02T18:16:55;13.10;37.40
3067;DHT22;1544;48.834;9.194;2022-11-02T18:19:30;13.00;37.50
3067;DHT22;1544;48.834;9.194;2022-11-02T18:22:07;12.90;37.80
3067;DHT22;1544;48.834;9.194;2022-11-02T18:24:43;12.90;38.00
3067;DHT22;1544;48.834;9.194;2022-11-02T18:27:18;12.80;38.10
3067;DHT22;1544;48.834;9.194;2022-11-02T18:29:56;12.70;38.30
3067;DHT22;1544;48.834;9.194;2022-11-02T18:32:31;12.70;38.40
3067;DHT22;1544;48.834;9.194;2022-11-02T18:35:14;12.60;38.50
3067;DHT22;1544;48.834;9.194;2022-11-02T18:37:50;12.60;38.70
3067;DHT22;1544;48.834;9.194;2022-11-02T18:40:25;12.50;38.90
3067;DHT22;1544;48.834;9.194;2022-11-02T18:43:08;12.40;39.20
3067;DHT22;1544;48.834;9.194;2022-11-02T18:45:44;12.40;39.40
3067;DHT22;1544;48.834;9.194;2022-11-02T18:48:18;12.30;39.50
3067;DHT22;1544;48.834;9.194;2022-11-02T18:50:53;12.30;39.70
3067;DHT22;1544;48.834;9.194;2022-11-02T18:53:28;12.20;40.20
3067;DHT22;1544;48.834;9.194;2022-11-02T18:56:05;12.10;40.30
3067;DHT22;1544;48.834;9.194;2022-11-02T18:58:41;12.10;40.50
3067;DHT22;1544;48.834;9.194;2022-11-02T19:01:17;12.00;40.70
3067;DHT22;1544;48.834;9.194;2022-11-02T19:03:57;11.90;41.00
3067;DHT22;1544;48.834;9.194;2022-11-02T19:06:33;11.90;41.10
3067;DHT22;1544;48.834;9.194;2022-11-02T19:09:29;11.90;41.30
3067;DHT22;1544;48.834;9.194;2022-11-02T19:12:13;11.80;41.50
3067;DHT22;1544;48.834;9.194;2022-11-02T19:14:51;11.70;42.00
3067;DHT22;1544;48.834;9.194;2022-11-02T19:17:30;11.70;41.90
3067;DHT22;1544;48.834;9.194;2022-11-02T19:20:06;11.70;42.30
3067;DHT22;1544;48.834;9.194;2022-11-02T19:22:42;11.60;42.50
3067;DHT22;1544;48.834;9.194;2022-11-02T19:25:17;11.60;42.60
3067;DHT22;1544;48.834;9.194;2022-11-02T19:27:52;11.50;43.00
3067;DHT22;1544;48.834;9.194;2022-11-02T19:30:27;11.50;43.20
3067;DHT22;1544;48.834;9.194;2022-11-02T19:33:02;11.50;43.50
3067;DHT22;1544;48.834;9.194;2022-11-02T19:35:39;11.40;43.50
3067;DHT22;1544;48.834;9.194;2022-11-02T19:38:14;11.40;43.60
3067;DHT22;1544;48.834;9.194;2022-11-02T19:41:03;11.40;43.80
3067;DHT22;1544;48.834;9.194;2022-11-02T19:43:40;11.30;43.80
3067;DHT22;1544;48.834;9.194;2022-11-02T19:46:19;11.30;43.90
3067;DHT22;1544;48.834;9.194;2022-11-02T19:48:56;11.20;44.00
3067;DHT22;1544;48.834;9.194;2022-11-02T19:51:34;11.10;44.50
3067;DHT22;1544;48.834;9.194;2022-11-02T19:54:08;11.10;45.00
3067;DHT22;1544;48.834;9.194;2022-11-02T19:56:43;11.10;45.40
3067;DHT22;1544;48.834;9.194;2022-11-02T19:59:20;11.00;45.50
3067;DHT22;1544;48.834;9.194;2022-11-02T20:01:55;11.00;45.80
3067;DHT22;1544;48.834;9.194;2022-11-02T20:04:31;10.90;46.10